Bretton Woods, NH (03575)

6:33 PM EDT on May 22, 2015 (GMT -0400)
Crawford Notch Campground | | Change Station
CLOSE
Current Station
Personal Weather Station
Location: Harts Location, NH
Elevation: 1063 ft
Nearby Weather Stations
Active Advisory: Freeze Warning

Elev 1063 ft 44.13 °N, 71.36 °W | Updated 3 minutes ago

Mostly Cloudy
Mostly Cloudy
53.8 °F
Feels Like 53.8 °F
N
3.0
Wind Variable Wind from East
Gusts 4.0 mph

Today
High -- | Low -- °F
--% Chance of Precip.
Yesterday
High -- | Low -- °F
Precip. -- in
5:12 AM 8:13 PM
Waxing Crescent, 24% visible
Pressure 29.94 in
Visibility 10.0 miles
Clouds Scattered Clouds 6500 ft
Dew Point 31 °F
Humidity 42%
Rainfall 0.00 in
Snow Depth Not available.
UV 2 out of 12
Pollen 9.30 out of 12
Air Quality Not available.
Flu Activity Regional
METAR KHIE 222152Z AUTO 30011G22KT 10SM SCT065 12/M02 A2992 RMK AO2 SLP137 T01221022 TSNO

More Conditions Fewer Conditions

Pressure 29.94 in
Visibility 10.0 miles
Clouds Scattered Clouds 6500 ft
Dew Point 31 °F
Humidity 42%
Rainfall 0.00 in
Snow Depth Not available.
UV 2 out of 12
Pollen 9.30 out of 12
Air Quality Not available.
Flu Activity Regional
METAR KHIE 222152Z AUTO 30011G22KT 10SM SCT065 12/M02 A2992 RMK AO2 SLP137 T01221022 TSNO

More Conditions Fewer Conditions

10-Day Weather Forecast

Almanac

Astronomy

May. 22, 2015 Rise Set
Actual Time
Civil Twilight
Nautical Twilight
Astronomical Twilight
Moon
Length of Visible Light
Length of Day
Tomorrow will be .
, % of the Moon is Illuminated

Today's Extremes

State Highs State Lows

Community

WunderPhotos

Upload Photos

1,823,324 photos uploaded!

WunderBlogs® & News

Nearby

Air Quality

  Air Quality AQ Index Pollutant
Not available.

Snow Depth

Station Depth Elevation

Earthquake Activity

City Distance Mag. Time & Date
Minimum magnitude displayed is 2.5.

Coastal Water Temperatures

Place Temperature

Stations

Nearby Weather Stations

Station Location Temp. Windchill Dew Point Humidity Wind Precip. Elev Updated Type
                   
Freeze Warning
Statement as of 2:37 PM EDT on May 22, 2015

... Freeze warning in effect from midnight tonight to 8 am EDT
Saturday...

The National Weather Service in gray has issued a freeze
warning... which is in effect from midnight tonight to 8 am EDT
Saturday. The freeze watch is no longer in effect.

* Temperatures... in the upper 20s to lower 30s.

* Timing... overnight and early Saturday morning.

* Impacts... sensitive vegetation may freeze.

Precautionary/preparedness actions...

A freeze warning means sub-freezing temperatures are imminent or
highly likely. These conditions will kill crops and other
sensitive vegetation.